sensor_id;sensor_type;location;lat;lon;timestamp;temperature;humidity
41762;DHT22;27441;50.860;0.258;2022-11-20T00:02:19;4.50;99.90
41762;DHT22;27441;50.860;0.258;2022-11-20T00:04:45;4.50;99.90
41762;DHT22;27441;50.860;0.258;2022-11-20T00:07:11;4.50;99.90
41762;DHT22;27441;50.860;0.258;2022-11-20T00:09:37;4.60;99.90
41762;DHT22;27441;50.860;0.258;2022-11-20T00:12:03;4.60;99.90
41762;DHT22;27441;50.860;0.258;2022-11-20T00:14:29;4.60;99.90
41762;DHT22;27441;50.860;0.258;2022-11-20T00:16:54;4.50;99.90
41762;DHT22;27441;50.860;0.258;2022-11-20T00:19:20;4.40;99.90
41762;DHT22;27441;50.860;0.258;2022-11-20T00:21:45;4.40;99.90
41762;DHT22;27441;50.860;0.258;2022-11-20T00:24:12;4.50;99.90
41762;DHT22;27441;50.860;0.258;2022-11-20T00:26:38;4.60;99.90
41762;DHT22;27441;50.860;0.258;2022-11-20T00:29:04;4.60;99.90
41762;DHT22;27441;50.860;0.258;2022-11-20T00:31:30;4.60;99.90
41762;DHT22;27441;50.860;0.258;2022-11-20T00:33:57;4.60;99.90
41762;DHT22;27441;50.860;0.258;2022-11-20T00:36:25;4.70;99.90
41762;DHT22;27441;50.860;0.258;2022-11-20T00:38:53;4.80;99.90
41762;DHT22;27441;50.860;0.258;2022-11-20T00:41:20;4.80;99.90
41762;DHT22;27441;50.860;0.258;2022-11-20T00:43:45;4.80;99.90
41762;DHT22;27441;50.860;0.258;2022-11-20T00:46:17;4.80;99.90
41762;DHT22;27441;50.860;0.258;2022-11-20T00:48:43;4.80;99.90
41762;DHT22;27441;50.860;0.258;2022-11-20T00:51:11;4.80;99.90
41762;DHT22;27441;50.860;0.258;2022-11-20T00:53:38;4.90;99.90
41762;DHT22;27441;50.860;0.258;2022-11-20T00:56:10;4.80;99.90
41762;DHT22;27441;50.860;0.258;2022-11-20T00:58:40;4.90;99.90
41762;DHT22;27441;50.860;0.258;2022-11-20T01:01:12;5.00;99.90
41762;DHT22;27441;50.860;0.258;2022-11-20T01:03:40;5.00;99.90
41762;DHT22;27441;50.860;0.258;2022-11-20T01:06:10;5.00;99.90
41762;DHT22;27441;50.860;0.258;2022-11-20T01:08:37;5.00;99.90
41762;DHT22;27441;50.860;0.258;2022-11-20T01:11:05;5.00;99.90
41762;DHT22;27441;50.860;0.258;2022-11-20T01:13:31;5.00;99.90
41762;DHT22;27441;50.860;0.258;2022-11-20T01:16:09;5.00;99.90
41762;DHT22;27441;50.860;0.258;2022-11-20T01:18:36;5.10;99.90
41762;DHT22;27441;50.860;0.258;2022-11-20T01:21:08;5.00;99.90
41762;DHT22;27441;50.860;0.258;2022-11-20T01:23:35;5.00;99.90
41762;DHT22;27441;50.860;0.258;2022-11-20T01:26:03;5.10;99.90
41762;DHT22;27441;50.860;0.258;2022-11-20T01:28:30;5.10;99.90
41762;DHT22;27441;50.860;0.258;2022-11-20T01:30:56;5.10;99.90
41762;DHT22;27441;50.860;0.258;2022-11-20T01:33:22;5.10;99.90
41762;DHT22;27441;50.860;0.258;2022-11-20T01:35:48;5.00;99.90
41762;DHT22;27441;50.860;0.258;2022-11-20T01:38:15;5.00;99.90
41762;DHT22;27441;50.860;0.258;2022-11-20T01:40:41;5.00;99.90
41762;DHT22;27441;50.860;0.258;2022-11-20T01:43:14;4.90;99.90
41762;DHT22;27441;50.860;0.258;2022-11-20T01:48:37;5.00;99.90
41762;DHT22;27441;50.860;0.258;2022-11-20T01:51:04;5.00;99.90
41762;DHT22;27441;50.860;0.258;2022-11-20T01:53:34;5.00;99.90
41762;DHT22;27441;50.860;0.258;2022-11-20T01:56:03;5.00;99.90
41762;DHT22;27441;50.860;0.258;2022-11-20T01:58:35;5.00;99.90
41762;DHT22;27441;50.860;0.258;2022-11-20T02:01:01;5.00;99.90
41762;DHT22;27441;50.860;0.258;2022-11-20T02:03:28;5.00;99.90
41762;DHT22;27441;50.860;0.258;2022-11-20T02:06:09;5.00;99.90
41762;DHT22;27441;50.860;0.258;2022-11-20T02:08:38;5.10;99.90
41762;DHT22;27441;50.860;0.258;2022-11-20T02:11:04;5.10;99.90
41762;DHT22;27441;50.860;0.258;2022-11-20T02:13:29;5.10;99.90
41762;DHT22;27441;50.860;0.258;2022-11-20T02:18:39;5.20;99.90
41762;DHT22;27441;50.860;0.258;2022-11-20T02:21:14;5.20;99.90
41762;DHT22;27441;50.860;0.258;2022-11-20T02:24:03;5.30;99.90
41762;DHT22;27441;50.860;0.258;2022-11-20T02:26:40;5.30;99.90
41762;DHT22;27441;50.860;0.258;2022-11-20T02:29:06;5.30;99.90
41762;DHT22;27441;50.860;0.258;2022-11-20T02:31:40;5.30;99.90
41762;DHT22;27441;50.860;0.258;2022-11-20T02:34:07;5.30;99.90
41762;DHT22;27441;50.860;0.258;2022-11-20T02:36:34;5.30;99.90
41762;DHT22;27441;50.860;0.258;2022-11-20T02:39:02;5.30;99.90
41762;DHT22;27441;50.860;0.258;2022-11-20T02:41:33;5.30;99.90
41762;DHT22;27441;50.860;0.258;2022-11-20T02:43:59;5.40;99.90
41762;DHT22;27441;50.860;0.258;2022-11-20T02:46:25;5.40;99.90
41762;DHT22;27441;50.860;0.258;2022-11-20T02:48:50;5.40;99.90
41762;DHT22;27441;50.860;0.258;2022-11-20T02:51:16;5.50;99.90
41762;DHT22;27441;50.860;0.258;2022-11-20T02:53:42;5.50;99.90
41762;DHT22;27441;50.860;0.258;2022-11-20T02:56:07;5.50;99.90
41762;DHT22;27441;50.860;0.258;2022-11-20T02:58:33;5.60;99.90
41762;DHT22;27441;50.860;0.258;2022-11-20T03:00:59;5.60;99.90
41762;DHT22;27441;50.860;0.258;2022-11-20T03:03:24;5.60;99.90
41762;DHT22;27441;50.860;0.258;2022-11-20T03:05:50;5.60;99.90
41762;DHT22;27441;50.860;0.258;2022-11-20T03:08:16;5.60;99.90
41762;DHT22;27441;50.860;0.258;2022-11-20T03:10:41;5.60;99.90
41762;DHT22;27441;50.860;0.258;2022-11-20T03:13:07;5.60;99.90
41762;DHT22;27441;50.860;0.258;2022-11-20T03:15:33;5.60;99.90
41762;DHT22;27441;50.860;0.258;2022-11-20T03:18:00;5.60;99.90
41762;DHT22;27441;50.860;0.258;2022-11-20T03:20:26;5.60;99.90
41762;DHT22;27441;50.860;0.258;2022-11-20T03:22:53;5.60;99.90
41762;DHT22;27441;50.860;0.258;2022-11-20T03:25:20;5.60;99.90
41762;DHT22;27441;50.860;0.258;2022-11-20T03:27:45;5.70;99.90
41762;DHT22;27441;50.860;0.258;2022-11-20T03:30:11;5.70;99.90
41762;DHT22;27441;50.860;0.258;2022-11-20T03:32:37;5.80;99.90
41762;DHT22;27441;50.860;0.258;2022-11-20T03:35:03;5.80;99.90
41762;DHT22;27441;50.860;0.258;2022-11-20T03:37:29;5.90;99.90
41762;DHT22;27441;50.860;0.258;2022-11-20T03:39:55;6.00;99.90
41762;DHT22;27441;50.860;0.258;2022-11-20T03:42:20;6.10;99.90
41762;DHT22;27441;50.860;0.258;2022-11-20T03:45:05;6.10;99.90
41762;DHT22;27441;50.860;0.258;2022-11-20T03:47:31;6.10;99.90
41762;DHT22;27441;50.860;0.258;2022-11-20T03:49:57;6.20;99.90
41762;DHT22;27441;50.860;0.258;2022-11-20T03:52:22;6.20;99.90
41762;DHT22;27441;50.860;0.258;2022-11-20T03:54:48;6.30;99.90
41762;DHT22;27441;50.860;0.258;2022-11-20T03:57:14;6.30;99.90
41762;DHT22;27441;50.860;0.258;2022-11-20T03:59:39;6.30;99.90
41762;DHT22;27441;50.860;0.258;2022-11-20T04:02:05;6.30;99.90
41762;DHT22;27441;50.860;0.258;2022-11-20T04:04:31;6.30;99.90
41762;DHT22;27441;50.860;0.258;2022-11-20T04:06:57;6.30;99.90
41762;DHT22;27441;50.860;0.258;2022-11-20T04:09:22;6.30;99.90
41762;DHT22;27441;50.860;0.258;2022-11-20T04:11:48;6.30;99.90
41762;DHT22;27441;50.860;0.258;2022-11-20T04:14:15;6.40;99.90
41762;DHT22;27441;50.860;0.258;2022-11-20T04:16:41;6.40;99.90
41762;DHT22;27441;50.860;0.258;2022-11-20T04:19:11;6.40;99.90
41762;DHT22;27441;50.860;0.258;2022-11-20T04:21:37;6.40;99.90
41762;DHT22;27441;50.860;0.258;2022-11-20T04:24:03;6.40;99.90
41762;DHT22;27441;50.860;0.258;2022-11-20T04:26:30;6.50;99.90
41762;DHT22;27441;50.860;0.258;2022-11-20T04:28:56;6.50;99.90
41762;DHT22;27441;50.860;0.258;2022-11-20T04:31:28;6.70;99.90
41762;DHT22;27441;50.860;0.258;2022-11-20T04:33:54;6.80;99.90
41762;DHT22;27441;50.860;0.258;2022-11-20T04:36:25;6.80;99.90
41762;DHT22;27441;50.860;0.258;2022-11-20T04:38:53;6.80;99.90
41762;DHT22;27441;50.860;0.258;2022-11-20T04:41:20;6.80;99.90
41762;DHT22;27441;50.860;0.258;2022-11-20T04:43:50;6.80;99.90
41762;DHT22;27441;50.860;0.258;2022-11-20T04:46:18;6.80;99.90
41762;DHT22;27441;50.860;0.258;2022-11-20T04:48:44;6.90;99.90
41762;DHT22;27441;50.860;0.258;2022-11-20T04:51:10;6.90;99.90
41762;DHT22;27441;50.860;0.258;2022-11-20T04:53:36;6.90;99.90
41762;DHT22;27441;50.860;0.258;2022-11-20T04:56:05;6.90;99.90
41762;DHT22;27441;50.860;0.258;2022-11-20T04:58:31;7.00;99.90
41762;DHT22;27441;50.860;0.258;2022-11-20T05:01:05;7.00;99.90
41762;DHT22;27441;50.860;0.258;2022-11-20T05:03:31;7.00;99.90
41762;DHT22;27441;50.860;0.258;2022-11-20T05:06:00;7.00;99.90
41762;DHT22;27441;50.860;0.258;2022-11-20T05:08:27;7.00;99.90
41762;DHT22;27441;50.860;0.258;2022-11-20T05:10:53;7.10;99.90
41762;DHT22;27441;50.860;0.258;2022-11-20T05:13:18;7.10;99.90
41762;DHT22;27441;50.860;0.258;2022-11-20T05:15:44;7.10;99.90
41762;DHT22;27441;50.860;0.258;2022-11-20T05:18:10;7.10;99.90
41762;DHT22;27441;50.860;0.258;2022-11-20T05:20:35;7.20;99.90
41762;DHT22;27441;50.860;0.258;2022-11-20T05:23:01;7.20;99.90
41762;DHT22;27441;50.860;0.258;2022-11-20T05:25:27;7.20;99.90
41762;DHT22;27441;50.860;0.258;2022-11-20T05:27:53;7.40;99.90
41762;DHT22;27441;50.860;0.258;2022-11-20T05:30:19;7.40;99.90
41762;DHT22;27441;50.860;0.258;2022-11-20T05:32:45;7.30;99.90
41762;DHT22;27441;50.860;0.258;2022-11-20T05:35:10;7.30;99.90
41762;DHT22;27441;50.860;0.258;2022-11-20T05:37:36;7.40;99.90
41762;DHT22;27441;50.860;0.258;2022-11-20T05:40:02;7.40;99.90
41762;DHT22;27441;50.860;0.258;2022-11-20T05:42:30;7.40;99.90
41762;DHT22;27441;50.860;0.258;2022-11-20T05:44:58;7.50;99.90
41762;DHT22;27441;50.860;0.258;2022-11-20T05:47:24;7.50;99.90
41762;DHT22;27441;50.860;0.258;2022-11-20T05:49:50;7.50;99.90
41762;DHT22;27441;50.860;0.258;2022-11-20T05:52:15;7.60;99.90
41762;DHT22;27441;50.860;0.258;2022-11-20T05:54:41;7.60;99.90
41762;DHT22;27441;50.860;0.258;2022-11-20T05:57:07;7.60;99.90
41762;DHT22;27441;50.860;0.258;2022-11-20T05:59:32;7.70;99.90
41762;DHT22;27441;50.860;0.258;2022-11-20T06:01:58;7.80;99.90
41762;DHT22;27441;50.860;0.258;2022-11-20T06:04:24;7.90;99.90
41762;DHT22;27441;50.860;0.258;2022-11-20T06:06:50;8.10;99.90
41762;DHT22;27441;50.860;0.258;2022-11-20T06:09:15;8.20;99.90
41762;DHT22;27441;50.860;0.258;2022-11-20T06:11:41;8.30;99.90
41762;DHT22;27441;50.860;0.258;2022-11-20T06:14:07;8.40;99.90
41762;DHT22;27441;50.860;0.258;2022-11-20T06:16:32;8.50;99.90
41762;DHT22;27441;50.860;0.258;2022-11-20T06:18:58;8.60;99.90
41762;DHT22;27441;50.860;0.258;2022-11-20T06:21:24;8.70;99.90
41762;DHT22;27441;50.860;0.258;2022-11-20T06:23:51;8.80;99.90
41762;DHT22;27441;50.860;0.258;2022-11-20T06:26:19;8.90;99.90
41762;DHT22;27441;50.860;0.258;2022-11-20T06:28:46;8.90;99.90
41762;DHT22;27441;50.860;0.258;2022-11-20T06:31:14;8.90;99.90
41762;DHT22;27441;50.860;0.258;2022-11-20T06:33:41;9.00;99.90
41762;DHT22;27441;50.860;0.258;2022-11-20T06:36:07;9.10;99.90
41762;DHT22;27441;50.860;0.258;2022-11-20T06:38:33;9.10;99.90
41762;DHT22;27441;50.860;0.258;2022-11-20T06:40:58;9.20;99.90
41762;DHT22;27441;50.860;0.258;2022-11-20T06:43:25;9.20;99.90
41762;DHT22;27441;50.860;0.258;2022-11-20T06:45:54;9.30;99.90
41762;DHT22;27441;50.860;0.258;2022-11-20T06:48:21;9.30;99.90
41762;DHT22;27441;50.860;0.258;2022-11-20T06:50:47;9.40;99.90
41762;DHT22;27441;50.860;0.258;2022-11-20T06:53:13;9.40;99.90
41762;DHT22;27441;50.860;0.258;2022-11-20T06:55:42;9.40;99.90
41762;DHT22;27441;50.860;0.258;2022-11-20T06:58:09;9.40;99.90
41762;DHT22;27441;50.860;0.258;2022-11-20T07:00:35;9.40;99.90
41762;DHT22;27441;50.860;0.258;2022-11-20T07:03:04;9.40;99.90
41762;DHT22;27441;50.860;0.258;2022-11-20T07:05:30;9.40;99.90
41762;DHT22;27441;50.860;0.258;2022-11-20T07:07:57;9.40;99.90
41762;DHT22;27441;50.860;0.258;2022-11-20T07:10:23;9.40;99.90
41762;DHT22;27441;50.860;0.258;2022-11-20T07:12:52;9.40;99.90
41762;DHT22;27441;50.860;0.258;2022-11-20T07:15:20;9.40;99.90
41762;DHT22;27441;50.860;0.258;2022-11-20T07:17:46;9.40;99.90
41762;DHT22;27441;50.860;0.258;2022-11-20T07:20:12;9.40;99.90
41762;DHT22;27441;50.860;0.258;2022-11-20T07:22:38;9.50;99.90
41762;DHT22;27441;50.860;0.258;2022-11-20T07:25:05;9.50;99.90
41762;DHT22;27441;50.860;0.258;2022-11-20T07:27:31;9.50;99.90
41762;DHT22;27441;50.860;0.258;2022-11-20T07:29:56;9.60;99.90
41762;DHT22;27441;50.860;0.258;2022-11-20T07:32:22;9.60;99.90
41762;DHT22;27441;50.860;0.258;2022-11-20T07:34:48;9.70;99.90
41762;DHT22;27441;50.860;0.258;2022-11-20T07:37:14;9.70;99.90
41762;DHT22;27441;50.860;0.258;2022-11-20T07:39:40;9.80;99.90
41762;DHT22;27441;50.860;0.258;2022-11-20T07:42:07;9.80;99.90
41762;DHT22;27441;50.860;0.258;2022-11-20T07:44:34;9.80;99.90
41762;DHT22;27441;50.860;0.258;2022-11-20T07:47:00;9.90;99.90
41762;DHT22;27441;50.860;0.258;2022-11-20T07:49:25;9.90;99.90
41762;DHT22;27441;50.860;0.258;2022-11-20T07:51:51;10.00;99.90
41762;DHT22;27441;50.860;0.258;2022-11-20T07:54:20;10.00;99.90
41762;DHT22;27441;50.860;0.258;2022-11-20T07:56:46;10.10;99.90
41762;DHT22;27441;50.860;0.258;2022-11-20T07:59:12;10.10;99.90
41762;DHT22;27441;50.860;0.258;2022-11-20T08:01:39;10.20;99.90
41762;DHT22;27441;50.860;0.258;2022-11-20T08:04:05;10.30;99.90
41762;DHT22;27441;50.860;0.258;2022-11-20T08:06:30;10.30;99.90
41762;DHT22;27441;50.860;0.258;2022-11-20T08:08:56;10.40;99.90
41762;DHT22;27441;50.860;0.258;2022-11-20T08:11:22;10.40;99.90
41762;DHT22;27441;50.860;0.258;2022-11-20T08:14:07;10.50;99.90
41762;DHT22;27441;50.860;0.258;2022-11-20T08:16:40;10.50;99.90
41762;DHT22;27441;50.860;0.258;2022-11-20T08:19:06;10.50;99.90
41762;DHT22;27441;50.860;0.258;2022-11-20T08:21:32;10.50;99.90
41762;DHT22;27441;50.860;0.258;2022-11-20T08:23:59;10.50;99.90
41762;DHT22;27441;50.860;0.258;2022-11-20T08:26:25;10.60;99.90
41762;DHT22;27441;50.860;0.258;2022-11-20T08:28:54;10.60;99.90
41762;DHT22;27441;50.860;0.258;2022-11-20T08:31:21;10.60;99.90
41762;DHT22;27441;50.860;0.258;2022-11-20T08:33:47;10.60;99.90
41762;DHT22;27441;50.860;0.258;2022-11-20T08:36:13;10.60;99.90
41762;DHT22;27441;50.860;0.258;2022-11-20T08:38:39;10.70;99.90
41762;DHT22;27441;50.860;0.258;2022-11-20T08:41:04;10.70;99.90
41762;DHT22;27441;50.860;0.258;2022-11-20T08:43:57;10.70;99.90
41762;DHT22;27441;50.860;0.258;2022-11-20T08:46:24;10.70;99.90
41762;DHT22;27441;50.860;0.258;2022-11-20T08:48:50;10.80;99.90
41762;DHT22;27441;50.860;0.258;2022-11-20T08:51:16;10.80;99.90
41762;DHT22;27441;50.860;0.258;2022-11-20T08:53:42;10.70;99.90
41762;DHT22;27441;50.860;0.258;2022-11-20T08:56:08;10.60;99.90
41762;DHT22;27441;50.860;0.258;2022-11-20T08:58:36;10.40;99.90
41762;DHT22;27441;50.860;0.258;2022-11-20T09:01:02;10.30;99.90
41762;DHT22;27441;50.860;0.258;2022-11-20T09:03:28;10.20;99.90
41762;DHT22;27441;50.860;0.258;2022-11-20T09:06:02;10.10;99.90
41762;DHT22;27441;50.860;0.258;2022-11-20T09:08:28;10.10;99.90
41762;DHT22;27441;50.860;0.258;2022-11-20T09:10:55;10.10;99.90
41762;DHT22;27441;50.860;0.258;2022-11-20T09:13:22;10.10;99.90
41762;DHT22;27441;50.860;0.258;2022-11-20T09:16:03;10.10;99.90
41762;DHT22;27441;50.860;0.258;2022-11-20T09:18:29;10.20;99.90
41762;DHT22;27441;50.860;0.258;2022-11-20T09:21:00;10.20;99.90
41762;DHT22;27441;50.860;0.258;2022-11-20T09:23:27;10.10;99.90
41762;DHT22;27441;50.860;0.258;2022-11-20T09:25:56;10.10;99.90
41762;DHT22;27441;50.860;0.258;2022-11-20T09:28:25;10.10;99.90
41762;DHT22;27441;50.860;0.258;2022-11-20T09:30:51;10.10;99.90
41762;DHT22;27441;50.860;0.258;2022-11-20T09:33:17;10.10;99.90
41762;DHT22;27441;50.860;0.258;2022-11-20T09:35:44;10.20;99.90
41762;DHT22;27441;50.860;0.258;2022-11-20T09:38:10;10.20;99.90
41762;DHT22;27441;50.860;0.258;2022-11-20T09:40:40;10.30;99.90
41762;DHT22;27441;50.860;0.258;2022-11-20T09:43:32;10.30;99.90
41762;DHT22;27441;50.860;0.258;2022-11-20T09:49:11;10.40;99.90
41762;DHT22;27441;50.860;0.258;2022-11-20T09:51:57;10.30;99.90
41762;DHT22;27441;50.860;0.258;2022-11-20T09:54:30;10.20;99.90
41762;DHT22;27441;50.860;0.258;2022-11-20T09:57:03;10.10;99.90
41762;DHT22;27441;50.860;0.258;2022-11-20T09:59:39;10.10;99.90
41762;DHT22;27441;50.860;0.258;2022-11-20T10:02:27;10.00;99.90
41762;DHT22;27441;50.860;0.258;2022-11-20T10:05:04;10.00;99.90
41762;DHT22;27441;50.860;0.258;2022-11-20T10:18:44;10.10;99.90
41762;DHT22;27441;50.860;0.258;2022-11-20T10:24:41;10.10;99.90
41762;DHT22;27441;50.860;0.258;2022-11-20T10:30:06;10.00;99.90
41762;DHT22;27441;50.860;0.258;2022-11-20T10:32:39;10.00;99.90
41762;DHT22;27441;50.860;0.258;2022-11-20T10:37:44;9.90;99.90
41762;DHT22;27441;50.860;0.258;2022-11-20T10:40:21;9.80;99.90
41762;DHT22;27441;50.860;0.258;2022-11-20T10:43:01;9.80;99.90
41762;DHT22;27441;50.860;0.258;2022-11-20T10:53:45;10.00;99.90
41762;DHT22;27441;50.860;0.258;2022-11-20T10:56:20;10.10;99.90
41762;DHT22;27441;50.860;0.258;2022-11-20T11:01:24;10.20;99.90
41762;DHT22;27441;50.860;0.258;2022-11-20T11:03:53;10.20;99.90
41762;DHT22;27441;50.860;0.258;2022-11-20T11:06:39;10.30;99.90
41762;DHT22;27441;50.860;0.258;2022-11-20T11:09:28;10.40;99.90
41762;DHT22;27441;50.860;0.258;2022-11-20T11:11:55;10.40;99.90
41762;DHT22;27441;50.860;0.258;2022-11-20T11:14:21;10.60;99.90
41762;DHT22;27441;50.860;0.258;2022-11-20T11:16:50;10.80;99.90
41762;DHT22;27441;50.860;0.258;2022-11-20T11:19:16;10.80;99.90
41762;DHT22;27441;50.860;0.258;2022-11-20T11:22:05;10.90;99.90
41762;DHT22;27441;50.860;0.258;2022-11-20T11:24:36;10.90;99.90
41762;DHT22;27441;50.860;0.258;2022-11-20T11:27:04;10.90;99.90
41762;DHT22;27441;50.860;0.258;2022-11-20T11:29:36;11.00;99.90
41762;DHT22;27441;50.860;0.258;2022-11-20T11:32:12;11.00;99.90
41762;DHT22;27441;50.860;0.258;2022-11-20T11:34:38;10.90;99.90
41762;DHT22;27441;50.860;0.258;2022-11-20T11:37:05;10.90;99.90
41762;DHT22;27441;50.860;0.258;2022-11-20T11:39:32;10.80;99.90
41762;DHT22;27441;50.860;0.258;2022-11-20T11:42:00;10.70;99.90
41762;DHT22;27441;50.860;0.258;2022-11-20T11:44:34;10.60;99.90
41762;DHT22;27441;50.860;0.258;2022-11-20T11:47:26;10.50;99.90
41762;DHT22;27441;50.860;0.258;2022-11-20T11:52:46;10.30;99.90
41762;DHT22;27441;50.860;0.258;2022-11-20T11:58:00;10.20;99.90
41762;DHT22;27441;50.860;0.258;2022-11-20T12:00:29;10.20;99.90
41762;DHT22;27441;50.860;0.258;2022-11-20T12:03:22;10.20;99.90
41762;DHT22;27441;50.860;0.258;2022-11-20T12:05:57;10.20;99.90
41762;DHT22;27441;50.860;0.258;2022-11-20T12:14:14;10.30;99.90
41762;DHT22;27441;50.860;0.258;2022-11-20T12:16:41;10.20;99.90
41762;DHT22;27441;50.860;0.258;2022-11-20T12:19:13;10.30;99.90
41762;DHT22;27441;50.860;0.258;2022-11-20T12:27:47;10.30;99.90
41762;DHT22;27441;50.860;0.258;2022-11-20T12:30:18;10.30;99.90
41762;DHT22;27441;50.860;0.258;2022-11-20T12:36:10;10.30;99.90
41762;DHT22;27441;50.860;0.258;2022-11-20T12:39:05;10.20;99.90
41762;DHT22;27441;50.860;0.258;2022-11-20T12:41:46;10.30;99.90
41762;DHT22;27441;50.860;0.258;2022-11-20T12:52:56;10.20;99.90
41762;DHT22;27441;50.860;0.258;2022-11-20T12:58:21;10.20;99.90
41762;DHT22;27441;50.860;0.258;2022-11-20T13:01:06;10.20;99.90
41762;DHT22;27441;50.860;0.258;2022-11-20T13:03:47;10.20;99.90
41762;DHT22;27441;50.860;0.258;2022-11-20T13:06:16;10.20;99.90
41762;DHT22;27441;50.860;0.258;2022-11-20T13:08:55;10.20;99.90
41762;DHT22;27441;50.860;0.258;2022-11-20T13:16:36;10.20;99.90
41762;DHT22;27441;50.860;0.258;2022-11-20T13:19:04;10.20;99.90
41762;DHT22;27441;50.860;0.258;2022-11-20T13:21:42;10.20;99.90
41762;DHT22;27441;50.860;0.258;2022-11-20T13:24:31;10.20;99.90
41762;DHT22;27441;50.860;0.258;2022-11-20T13:27:17;10.30;99.90
41762;DHT22;27441;50.860;0.258;2022-11-20T13:29:46;10.40;99.90
41762;DHT22;27441;50.860;0.258;2022-11-20T13:32:20;10.40;99.90
41762;DHT22;27441;50.860;0.258;2022-11-20T13:34:58;10.40;99.90
41762;DHT22;27441;50.860;0.258;2022-11-20T13:37:35;10.40;99.90
41762;DHT22;27441;50.860;0.258;2022-11-20T13:42:45;10.30;99.90
41762;DHT22;27441;50.860;0.258;2022-11-20T13:45:25;10.30;99.90
41762;DHT22;27441;50.860;0.258;2022-11-20T13:47:52;10.30;99.90
41762;DHT22;27441;50.860;0.258;2022-11-20T13:50:19;10.30;99.90
41762;DHT22;27441;50.860;0.258;2022-11-20T13:53:04;10.30;99.90
41762;DHT22;27441;50.860;0.258;2022-11-20T13:55:45;10.30;99.90
41762;DHT22;27441;50.860;0.258;2022-11-20T13:58:22;10.40;99.90
41762;DHT22;27441;50.860;0.258;2022-11-20T14:03:24;10.40;99.90
41762;DHT22;27441;50.860;0.258;2022-11-20T14:06:02;10.30;99.90
41762;DHT22;27441;50.860;0.258;2022-11-20T14:08:37;10.20;99.90
41762;DHT22;27441;50.860;0.258;2022-11-20T14:13:39;10.10;99.90
41762;DHT22;27441;50.860;0.258;2022-11-20T14:16:20;10.10;99.90
41762;DHT22;27441;50.860;0.258;2022-11-20T14:18:45;10.10;99.90
41762;DHT22;27441;50.860;0.258;2022-11-20T14:21:11;10.10;99.90
41762;DHT22;27441;50.860;0.258;2022-11-20T14:23:46;10.10;99.90
41762;DHT22;27441;50.860;0.258;2022-11-20T14:26:17;10.10;99.90
41762;DHT22;27441;50.860;0.258;2022-11-20T14:28:48;10.00;99.90
41762;DHT22;27441;50.860;0.258;2022-11-20T14:31:22;9.90;99.90
41762;DHT22;27441;50.860;0.258;2022-11-20T14:33:50;10.00;99.90
41762;DHT22;27441;50.860;0.258;2022-11-20T14:36:18;9.90;99.90
41762;DHT22;27441;50.860;0.258;2022-11-20T14:38:45;9.90;99.90
41762;DHT22;27441;50.860;0.258;2022-11-20T14:41:22;9.80;99.90
41762;DHT22;27441;50.860;0.258;2022-11-20T14:43:56;9.70;99.90
41762;DHT22;27441;50.860;0.258;2022-11-20T14:46:23;9.70;99.90
41762;DHT22;27441;50.860;0.258;2022-11-20T14:48:55;9.70;99.90
41762;DHT22;27441;50.860;0.258;2022-11-20T14:51:39;9.80;99.90
41762;DHT22;27441;50.860;0.258;2022-11-20T14:56:34;9.80;99.90
41762;DHT22;27441;50.860;0.258;2022-11-20T14:58:59;9.90;99.90
41762;DHT22;27441;50.860;0.258;2022-11-20T15:01:27;9.90;99.90
41762;DHT22;27441;50.860;0.258;2022-11-20T15:04:07;10.00;99.90
41762;DHT22;27441;50.860;0.258;2022-11-20T15:06:34;10.00;99.90
41762;DHT22;27441;50.860;0.258;2022-11-20T15:09:12;10.00;99.90
41762;DHT22;27441;50.860;0.258;2022-11-20T15:11:38;10.00;99.90
41762;DHT22;27441;50.860;0.258;2022-11-20T15:14:06;10.00;99.90
41762;DHT22;27441;50.860;0.258;2022-11-20T15:16:32;10.00;99.90
41762;DHT22;27441;50.860;0.258;2022-11-20T15:18:58;10.00;99.90
41762;DHT22;27441;50.860;0.258;2022-11-20T15:21:25;10.00;99.90
41762;DHT22;27441;50.860;0.258;2022-11-20T15:23:51;10.00;99.90
41762;DHT22;27441;50.860;0.258;2022-11-20T15:26:27;10.00;99.90
41762;DHT22;27441;50.860;0.258;2022-11-20T15:28:53;10.00;99.90
41762;DHT22;27441;50.860;0.258;2022-11-20T15:31:22;10.00;99.90
41762;DHT22;27441;50.860;0.258;2022-11-20T15:33:49;10.00;99.90
41762;DHT22;27441;50.860;0.258;2022-11-20T15:36:15;10.00;99.90
41762;DHT22;27441;50.860;0.258;2022-11-20T15:38:40;10.00;99.90
41762;DHT22;27441;50.860;0.258;2022-11-20T15:41:06;10.00;99.90
41762;DHT22;27441;50.860;0.258;2022-11-20T15:43:32;10.10;99.90
41762;DHT22;27441;50.860;0.258;2022-11-20T15:46:23;10.10;99.90
41762;DHT22;27441;50.860;0.258;2022-11-20T15:48:54;10.00;99.90
41762;DHT22;27441;50.860;0.258;2022-11-20T15:51:31;9.90;99.90
41762;DHT22;27441;50.860;0.258;2022-11-20T15:53:58;9.90;99.90
41762;DHT22;27441;50.860;0.258;2022-11-20T15:56:24;9.80;99.90
41762;DHT22;27441;50.860;0.258;2022-11-20T15:58:50;9.80;99.90
41762;DHT22;27441;50.860;0.258;2022-11-20T16:01:18;9.70;99.90
41762;DHT22;27441;50.860;0.258;2022-11-20T16:03:45;9.60;99.90
41762;DHT22;27441;50.860;0.258;2022-11-20T16:06:10;9.60;99.90
41762;DHT22;27441;50.860;0.258;2022-11-20T16:08:36;9.60;99.90
41762;DHT22;27441;50.860;0.258;2022-11-20T16:11:03;9.50;99.90
41762;DHT22;27441;50.860;0.258;2022-11-20T16:13:31;9.50;99.90
41762;DHT22;27441;50.860;0.258;2022-11-20T16:16:37;9.40;99.90
41762;DHT22;27441;50.860;0.258;2022-11-20T16:19:04;9.30;99.90
41762;DHT22;27441;50.860;0.258;2022-11-20T16:21:30;9.20;99.90
41762;DHT22;27441;50.860;0.258;2022-11-20T16:24:04;9.10;99.90
41762;DHT22;27441;50.860;0.258;2022-11-20T16:26:30;9.00;99.90
41762;DHT22;27441;50.860;0.258;2022-11-20T16:29:02;9.00;99.90
41762;DHT22;27441;50.860;0.258;2022-11-20T16:31:28;8.90;99.90
41762;DHT22;27441;50.860;0.258;2022-11-20T16:34:03;8.90;99.90
41762;DHT22;27441;50.860;0.258;2022-11-20T16:36:29;8.90;99.90
41762;DHT22;27441;50.860;0.258;2022-11-20T16:38:59;8.90;99.90
41762;DHT22;27441;50.860;0.258;2022-11-20T16:41:26;8.90;99.90
41762;DHT22;27441;50.860;0.258;2022-11-20T16:43:54;9.00;99.90
41762;DHT22;27441;50.860;0.258;2022-11-20T16:46:23;8.90;99.90
41762;DHT22;27441;50.860;0.258;2022-11-20T16:48:57;9.00;99.90
41762;DHT22;27441;50.860;0.258;2022-11-20T16:51:24;9.00;99.90
41762;DHT22;27441;50.860;0.258;2022-11-20T16:53:50;9.00;99.90
41762;DHT22;27441;50.860;0.258;2022-11-20T16:56:20;9.00;99.90
41762;DHT22;27441;50.860;0.258;2022-11-20T16:58:48;9.10;99.90
41762;DHT22;27441;50.860;0.258;2022-11-20T17:01:17;9.20;99.90
41762;DHT22;27441;50.860;0.258;2022-11-20T17:03:46;9.20;99.90
41762;DHT22;27441;50.860;0.258;2022-11-20T17:06:22;9.20;99.90
41762;DHT22;27441;50.860;0.258;2022-11-20T17:08:48;9.30;99.90
41762;DHT22;27441;50.860;0.258;2022-11-20T17:11:16;9.20;99.90
41762;DHT22;27441;50.860;0.258;2022-11-20T17:13:42;9.10;99.90
41762;DHT22;27441;50.860;0.258;2022-11-20T17:16:13;9.00;99.90
41762;DHT22;27441;50.860;0.258;2022-11-20T17:18:39;9.00;99.90
41762;DHT22;27441;50.860;0.258;2022-11-20T17:21:06;8.90;99.90